createdAt,value
2022-08-22T00:01:18.299Z,33.21
2022-08-22T00:02:42.423Z,34.28
2022-08-22T00:03:00.233Z,33.68
2022-08-22T00:04:06.386Z,33.21
2022-08-22T00:06:54.970Z,33.21
2022-08-22T00:09:40.834Z,33.20
2022-08-22T00:12:22.010Z,33.17
2022-08-22T00:15:02.310Z,33.17
2022-08-22T00:17:52.748Z,33.16
2022-08-22T00:20:36.344Z,33.14
2022-08-22T00:23:19.232Z,33.14
2022-08-22T00:26:02.999Z,33.14
2022-08-22T00:28:42.253Z,33.14
2022-08-22T00:31:32.438Z,33.14
2022-08-22T00:34:13.464Z,33.14
2022-08-22T00:36:51.624Z,33.15
2022-08-22T00:39:34.761Z,33.16
2022-08-22T00:42:43.030Z,33.14
2022-08-22T00:45:57.165Z,33.14
2022-08-22T00:49:13.844Z,33.10
2022-08-22T00:52:24.944Z,33.08
2022-08-22T00:55:24.480Z,33.10
2022-08-22T00:58:26.568Z,33.09
2022-08-22T01:01:04.812Z,33.09
2022-08-22T01:04:24.076Z,33.08
2022-08-22T01:07:19.467Z,33.07
2022-08-22T01:10:15.857Z,33.06
2022-08-22T01:13:22.574Z,33.05
2022-08-22T01:16:10.608Z,33.05
2022-08-22T01:19:11.702Z,33.05
2022-08-22T01:22:30.107Z,33.03
2022-08-22T01:25:51.753Z,33.03
2022-08-22T01:29:10.353Z,33.02
2022-08-22T01:32:46.176Z,33.00
2022-08-22T01:36:05.207Z,32.99
2022-08-22T01:39:04.403Z,32.99
2022-08-22T01:42:12.854Z,32.98
2022-08-22T01:45:22.516Z,32.97
2022-08-22T01:48:00.871Z,32.98
2022-08-22T01:50:41.814Z,32.99
2022-08-22T01:53:28.198Z,32.98
2022-08-22T01:56:13.477Z,32.97
2022-08-22T01:59:04.341Z,32.98
2022-08-22T02:02:01.062Z,32.98
2022-08-22T02:04:46.136Z,32.97
2022-08-22T02:07:24.114Z,32.96
2022-08-22T02:10:18.461Z,32.96
2022-08-22T02:13:06.310Z,32.94
2022-08-22T02:15:53.300Z,32.93
2022-08-22T02:18:35.457Z,32.93
2022-08-22T02:21:18.566Z,32.92
2022-08-22T02:24:00.788Z,32.93
2022-08-22T02:26:50.612Z,32.90
2022-08-22T02:29:32.679Z,32.89
2022-08-22T02:32:17.805Z,32.88
2022-08-22T02:35:04.321Z,32.87
2022-08-22T02:37:43.183Z,32.86
2022-08-22T02:40:30.136Z,32.82
2022-08-22T02:43:13.921Z,32.79
2022-08-22T02:45:57.326Z,32.76
2022-08-22T02:48:44.133Z,32.75
2022-08-22T02:51:28.922Z,32.73
2022-08-22T02:54:14.044Z,32.72
2022-08-22T02:56:52.760Z,32.73
2022-08-22T02:59:42.683Z,32.72
2022-08-22T03:02:38.832Z,32.71
2022-08-22T03:05:26.824Z,32.70
2022-08-22T03:08:10.481Z,32.70
2022-08-22T03:10:50.523Z,32.69
2022-08-22T03:13:38.028Z,32.69
2022-08-22T03:16:20.981Z,32.69
2022-08-22T03:19:05.864Z,32.68
2022-08-22T03:21:46.131Z,32.66
2022-08-22T03:24:26.856Z,32.66
2022-08-22T03:27:09.690Z,32.65
2022-08-22T03:29:48.998Z,32.64
2022-08-22T03:32:26.745Z,32.63
2022-08-22T03:35:17.147Z,32.63
2022-08-22T03:37:49.190Z,32.61
2022-08-22T03:40:34.912Z,32.61
2022-08-22T03:43:40.502Z,32.59
2022-08-22T03:47:06.875Z,32.56
2022-08-22T03:50:13.920Z,32.54
2022-08-22T03:53:33.218Z,32.53
2022-08-22T03:57:02.861Z,32.52
2022-08-22T04:00:10.961Z,32.52
2022-08-22T04:03:32.064Z,32.52
2022-08-22T04:06:49.105Z,32.53
2022-08-22T04:10:25.912Z,32.54
2022-08-22T04:13:46.919Z,32.53
2022-08-22T04:16:55.965Z,32.54
2022-08-22T04:20:09.982Z,32.56
2022-08-22T04:23:30.870Z,32.59
2022-08-22T04:26:12.368Z,32.62
2022-08-22T04:28:49.861Z,32.66
2022-08-22T04:31:28.713Z,32.70
2022-08-22T04:34:08.473Z,32.73
2022-08-22T04:36:46.822Z,32.75
2022-08-22T04:39:25.819Z,32.78
2022-08-22T04:42:29.044Z,32.81
2022-08-22T04:45:04.862Z,32.83
2022-08-22T04:47:41.880Z,32.85
2022-08-22T04:50:24.235Z,32.88
2022-08-22T04:53:14.493Z,32.92
2022-08-22T04:56:07.520Z,32.94
2022-08-22T04:58:50.398Z,32.97
2022-08-22T05:01:26.142Z,32.99
2022-08-22T05:04:04.496Z,33.02
2022-08-22T05:06:55.368Z,33.07
2022-08-22T05:09:32.863Z,33.11
2022-08-22T05:12:15.117Z,33.15
2022-08-22T05:14:54.409Z,33.20
2022-08-22T05:17:30.973Z,33.22
2022-08-22T05:20:08.990Z,33.26
2022-08-22T05:22:48.156Z,33.30
2022-08-22T05:25:24.204Z,33.33
2022-08-22T05:28:09.206Z,33.38
2022-08-22T05:30:42.840Z,33.41
2022-08-22T05:33:24.873Z,33.46
2022-08-22T05:36:04.868Z,33.51
2022-08-22T05:38:56.550Z,33.56
2022-08-22T05:41:36.060Z,33.61
2022-08-22T05:44:21.149Z,33.65
2022-08-22T05:47:02.377Z,33.67
2022-08-22T05:49:43.748Z,33.67
2022-08-22T05:52:30.564Z,33.71
2022-08-22T05:55:15.759Z,33.73
2022-08-22T05:57:53.245Z,33.74
2022-08-22T06:00:33.430Z,33.77
2022-08-22T06:03:20.317Z,33.78
2022-08-22T06:05:57.676Z,33.78
2022-08-22T06:08:35.518Z,33.81
2022-08-22T06:11:15.116Z,33.85
2022-08-22T06:13:55.651Z,33.90
2022-08-22T06:16:47.410Z,33.95
2022-08-22T06:19:22.884Z,33.99
2022-08-22T06:21:58.106Z,34.03
2022-08-22T06:24:31.238Z,34.07
2022-08-22T06:27:11.738Z,34.13
2022-08-22T06:33:00.139Z,34.26
2022-08-22T06:35:56.622Z,34.33
2022-08-22T06:38:34.530Z,34.40
2022-08-22T06:41:11.345Z,34.45
2022-08-22T06:43:46.827Z,34.49
2022-08-22T06:46:21.665Z,34.52
2022-08-22T06:48:57.898Z,34.57
2022-08-22T06:51:33.489Z,34.61
2022-08-22T06:54:09.145Z,34.65
2022-08-22T06:56:48.004Z,34.71
2022-08-22T06:59:24.401Z,34.76
2022-08-22T07:02:01.476Z,34.82
2022-08-22T07:04:34.871Z,34.88
2022-08-22T07:07:05.982Z,34.93
2022-08-22T07:09:41.004Z,34.99
2022-08-22T07:12:21.644Z,35.06
2022-08-22T07:14:57.862Z,35.13
2022-08-22T07:17:40.151Z,35.19
2022-08-22T07:20:30.111Z,35.28
2022-08-22T07:23:05.899Z,35.35
2022-08-22T07:26:01.545Z,35.42
2022-08-22T07:28:51.449Z,35.49
2022-08-22T07:31:40.645Z,35.55
2022-08-22T07:34:39.453Z,35.63
2022-08-22T07:37:25.974Z,35.68
2022-08-22T07:40:11.738Z,35.73
2022-08-22T07:42:53.689Z,35.80
2022-08-22T07:45:38.504Z,35.85
2022-08-22T07:48:28.967Z,35.89
2022-08-22T07:51:13.037Z,35.90
2022-08-22T07:53:51.381Z,35.92
2022-08-22T07:56:31.098Z,35.96
2022-08-22T07:59:13.067Z,36.00
2022-08-22T08:01:51.303Z,36.06
2022-08-22T08:04:30.411Z,36.11
2022-08-22T08:07:05.701Z,36.15
2022-08-22T08:09:46.111Z,36.21
2022-08-22T08:12:23.500Z,36.26
2022-08-22T08:14:57.899Z,36.32
2022-08-22T08:17:34.033Z,36.38
2022-08-22T08:20:12.391Z,36.40
2022-08-22T08:22:48.901Z,36.44
2022-08-22T08:25:28.907Z,36.48
2022-08-22T08:28:19.250Z,36.53
2022-08-22T08:31:02.774Z,36.56
2022-08-22T08:33:39.310Z,36.58
2022-08-22T08:36:28.074Z,36.61
2022-08-22T08:39:13.256Z,36.63
2022-08-22T08:42:19.439Z,36.64
2022-08-22T08:45:35.387Z,36.67
2022-08-22T08:48:38.603Z,36.72
2022-08-22T08:51:39.123Z,36.76
2022-08-22T08:54:56.662Z,36.79
2022-08-22T08:57:59.366Z,36.79
2022-08-22T09:00:57.692Z,36.81
2022-08-22T09:04:16.354Z,36.83
2022-08-22T09:07:37.669Z,36.85
2022-08-22T09:11:19.314Z,36.87
2022-08-22T09:14:31.415Z,36.90
2022-08-22T09:17:41.220Z,36.94
2022-08-22T09:20:50.426Z,36.97
2022-08-22T09:24:21.385Z,36.94
2022-08-22T09:27:00.792Z,36.96
2022-08-22T09:29:54.643Z,36.98
2022-08-22T09:32:50.982Z,36.98
2022-08-22T09:35:41.283Z,36.98
2022-08-22T09:38:47.949Z,37.00
2022-08-22T09:41:40.569Z,37.01
2022-08-22T09:44:34.824Z,37.03
2022-08-22T09:47:32.685Z,37.05
2022-08-22T09:50:17.176Z,37.07
2022-08-22T09:53:13.454Z,37.10
2022-08-22T09:55:58.130Z,37.10
2022-08-22T09:58:45.662Z,37.11
2022-08-22T10:01:33.012Z,37.11
2022-08-22T10:04:49.727Z,37.09
2022-08-22T10:07:58.229Z,37.09
2022-08-22T10:10:55.016Z,37.08
2022-08-22T10:13:44.298Z,37.08
2022-08-22T10:16:38.268Z,37.06
2022-08-22T10:19:29.010Z,37.06
2022-08-22T10:22:48.056Z,37.05
2022-08-22T10:25:41.684Z,37.04
2022-08-22T10:28:35.543Z,37.04
2022-08-22T10:31:32.512Z,37.02
2022-08-22T10:34:20.085Z,37.04
2022-08-22T10:37:11.698Z,37.03
2022-08-22T10:40:00.433Z,37.03
2022-08-22T10:42:46.675Z,37.04
2022-08-22T10:45:36.312Z,37.01
2022-08-22T10:48:47.807Z,36.98
2022-08-22T10:51:35.732Z,36.96
2022-08-22T10:54:31.219Z,36.96
2022-08-22T10:57:36.343Z,36.94
2022-08-22T11:00:22.593Z,36.92
2022-08-22T11:03:21.790Z,36.91
2022-08-22T11:06:00.730Z,36.88
2022-08-22T11:09:04.465Z,36.88
2022-08-22T11:11:49.686Z,36.86
2022-08-22T11:15:10.825Z,36.84
2022-08-22T11:18:23.264Z,36.82
2022-08-22T11:21:09.172Z,36.82
2022-08-22T11:24:04.179Z,36.83
2022-08-22T11:26:47.854Z,36.81
2022-08-22T11:29:47.753Z,36.77
2022-08-22T11:32:40.606Z,36.76
2022-08-22T11:35:26.474Z,36.76
2022-08-22T11:38:11.087Z,36.76
2022-08-22T11:40:59.517Z,36.75
2022-08-22T11:43:55.502Z,36.75
2022-08-22T11:46:35.028Z,36.74
2022-08-22T11:49:43.939Z,36.73
2022-08-22T11:52:56.882Z,36.71
2022-08-22T11:55:36.991Z,36.69
2022-08-22T11:58:28.926Z,36.67
2022-08-22T12:01:11.733Z,36.66
2022-08-22T12:04:10.120Z,36.66
2022-08-22T12:07:05.470Z,36.61
2022-08-22T12:09:56.172Z,36.56
2022-08-22T12:12:56.161Z,36.53
2022-08-22T12:15:36.414Z,36.51
2022-08-22T12:18:52.894Z,36.50
2022-08-22T12:22:04.476Z,36.48
2022-08-22T12:25:02.968Z,36.44
2022-08-22T12:28:00.800Z,36.43
2022-08-22T12:30:41.178Z,36.38
2022-08-22T12:33:55.539Z,36.34
2022-08-22T12:37:05.120Z,36.32
2022-08-22T12:40:27.345Z,36.32
2022-08-22T12:43:49.665Z,36.30
2022-08-22T12:46:49.273Z,36.30
2022-08-22T12:49:52.361Z,36.26
2022-08-22T12:53:07.010Z,36.24
2022-08-22T12:56:05.432Z,36.23
2022-08-22T12:59:09.624Z,36.20
2022-08-22T13:01:50.393Z,36.17
2022-08-22T13:04:33.072Z,36.13
2022-08-22T13:07:31.274Z,36.13
2022-08-22T13:10:28.920Z,36.10
2022-08-22T13:13:03.894Z,36.05
2022-08-22T13:15:58.647Z,36.01
2022-08-22T13:18:53.550Z,35.99
2022-08-22T13:21:34.883Z,35.99
2022-08-22T13:24:16.829Z,35.99
2022-08-22T13:27:07.935Z,35.97
2022-08-22T13:29:53.195Z,35.94
2022-08-22T13:32:44.267Z,35.91
2022-08-22T13:35:27.855Z,35.89
2022-08-22T13:38:12.238Z,35.87
2022-08-22T13:40:53.466Z,35.86
2022-08-22T13:43:28.955Z,35.86
2022-08-22T13:46:06.076Z,35.85
2022-08-22T13:49:04.865Z,35.85
2022-08-22T13:51:50.362Z,35.83
2022-08-22T13:54:55.116Z,35.81
2022-08-22T13:57:36.051Z,35.78
2022-08-22T14:00:33.686Z,35.75
2022-08-22T14:03:17.680Z,35.73
2022-08-22T14:06:06.173Z,35.69
2022-08-22T14:08:51.556Z,35.66
2022-08-22T14:11:35.224Z,35.66
2022-08-22T14:14:10.191Z,35.65
2022-08-22T14:16:51.567Z,35.65
2022-08-22T14:19:53.134Z,35.63
2022-08-22T14:22:34.861Z,35.60
2022-08-22T14:25:11.332Z,35.59
2022-08-22T14:27:58.244Z,35.60
2022-08-22T14:30:35.424Z,35.59
2022-08-22T14:33:16.834Z,35.58
2022-08-22T14:35:55.917Z,35.58
2022-08-22T14:38:32.475Z,35.56
2022-08-22T14:41:08.075Z,35.56
2022-08-22T14:43:59.319Z,35.56
2022-08-22T14:46:38.120Z,35.54
2022-08-22T14:49:50.673Z,35.51
2022-08-22T14:52:51.111Z,35.46
2022-08-22T14:55:28.260Z,35.44
2022-08-22T14:58:07.470Z,35.43
2022-08-22T15:00:44.883Z,35.43
2022-08-22T15:03:35.045Z,35.41
2022-08-22T15:06:14.055Z,35.41
2022-08-22T15:08:53.401Z,35.39
2022-08-22T15:11:32.035Z,35.37
2022-08-22T15:14:13.430Z,35.35
2022-08-22T15:16:57.521Z,35.32
2022-08-22T15:19:37.363Z,35.30
2022-08-22T15:22:19.531Z,35.27
2022-08-22T15:25:00.924Z,35.27
2022-08-22T15:27:36.723Z,35.26
2022-08-22T15:30:16.898Z,35.24
2022-08-22T15:32:52.188Z,35.22
2022-08-22T15:35:39.029Z,35.22
2022-08-22T15:38:28.226Z,35.20
2022-08-22T15:41:47.290Z,35.15
2022-08-22T15:44:34.341Z,35.15
2022-08-22T15:47:34.263Z,35.12
2022-08-22T15:50:23.693Z,35.11
2022-08-22T15:53:24.472Z,35.08
2022-08-22T15:56:35.237Z,35.07
2022-08-22T15:59:52.700Z,35.05
2022-08-22T16:02:35.354Z,35.03
2022-08-22T16:05:29.800Z,35.01
2022-08-22T16:08:09.406Z,34.99
2022-08-22T16:10:45.547Z,34.96
2022-08-22T16:13:43.262Z,34.96
2022-08-22T16:16:56.756Z,34.93
2022-08-22T16:19:30.111Z,34.92
2022-08-22T16:22:22.369Z,34.91
2022-08-22T16:25:11.545Z,34.91
2022-08-22T16:28:00.522Z,34.89
2022-08-22T16:30:41.707Z,34.88
2022-08-22T16:33:18.331Z,34.84
2022-08-22T16:36:55.332Z,34.79
2022-08-22T16:39:42.929Z,34.75
2022-08-22T16:42:39.236Z,34.73
2022-08-22T16:45:22.642Z,34.74
2022-08-22T16:47:58.846Z,34.73
2022-08-22T16:50:41.387Z,34.74
2022-08-22T16:53:50.438Z,34.73
2022-08-22T16:56:32.421Z,34.71
2022-08-22T16:59:38.608Z,34.70
2022-08-22T17:02:46.381Z,34.68
2022-08-22T17:05:54.127Z,34.61
2022-08-22T17:08:51.740Z,34.60
2022-08-22T17:11:41.272Z,34.61
2022-08-22T17:14:38.223Z,34.60
2022-08-22T17:17:33.151Z,34.59
2022-08-22T17:20:24.303Z,34.59
2022-08-22T17:23:09.770Z,34.57
2022-08-22T17:26:00.358Z,34.56
2022-08-22T17:28:44.635Z,34.54
2022-08-22T17:31:27.378Z,34.51
2022-08-22T17:34:26.541Z,34.52
2022-08-22T17:37:12.670Z,34.50
2022-08-22T17:40:11.303Z,34.48
2022-08-22T17:43:23.440Z,34.46
2022-08-22T17:46:17.885Z,34.48
2022-08-22T17:48:58.071Z,34.49
2022-08-22T17:51:40.395Z,34.50
2022-08-22T17:54:35.906Z,34.49
2022-08-22T17:57:16.143Z,34.49
2022-08-22T17:59:58.261Z,34.48
2022-08-22T18:02:37.393Z,34.47
2022-08-22T18:05:20.298Z,34.47
2022-08-22T18:08:06.526Z,34.47
2022-08-22T18:10:48.856Z,34.47
2022-08-22T18:13:38.778Z,34.47
2022-08-22T18:16:23.177Z,34.46
2022-08-22T18:19:05.433Z,34.46
2022-08-22T18:21:45.812Z,34.45
2022-08-22T18:24:32.994Z,34.41
2022-08-22T18:27:34.118Z,34.39
2022-08-22T18:30:20.499Z,34.39
2022-08-22T18:33:04.116Z,34.39
2022-08-22T18:35:48.620Z,34.39
2022-08-22T18:38:53.774Z,34.41
2022-08-22T18:41:35.026Z,34.37
2022-08-22T18:44:15.092Z,34.36
2022-08-22T18:47:02.367Z,34.34
2022-08-22T18:49:48.758Z,34.34
2022-08-22T18:52:36.795Z,34.34
2022-08-22T18:55:30.029Z,34.34
2022-08-22T18:58:43.559Z,34.33
2022-08-22T19:01:44.123Z,34.32
2022-08-22T19:05:01.163Z,34.29
2022-08-22T19:08:23.658Z,34.27
2022-08-22T19:11:18.531Z,34.25
2022-08-22T19:14:10.877Z,34.25
2022-08-22T19:17:15.857Z,34.23
2022-08-22T19:20:20.755Z,34.21
2022-08-22T19:22:54.286Z,34.20
2022-08-22T19:25:29.848Z,34.19
2022-08-22T19:28:40.081Z,34.18
2022-08-22T19:31:45.350Z,34.17
2022-08-22T19:34:41.064Z,34.17
2022-08-22T19:37:33.523Z,34.16
2022-08-22T19:40:08.491Z,34.14
2022-08-22T19:42:43.958Z,34.15
2022-08-22T19:45:30.278Z,34.17
2022-08-22T19:48:13.636Z,34.17
2022-08-22T19:50:47.293Z,34.18
2022-08-22T19:53:42.729Z,34.17
2022-08-22T19:56:34.547Z,34.18
2022-08-22T19:59:33.865Z,34.18
2022-08-22T20:02:27.861Z,34.18
2022-08-22T20:05:28.220Z,34.18
2022-08-22T20:08:39.865Z,34.19
2022-08-22T20:11:40.418Z,34.18
2022-08-22T20:14:30.816Z,34.17
2022-08-22T20:17:13.218Z,34.16
2022-08-22T20:22:52.949Z,34.13
2022-08-22T20:25:43.006Z,34.15
2022-08-22T20:28:44.419Z,34.14
2022-08-22T20:31:26.003Z,34.13
2022-08-22T20:34:08.735Z,34.12
2022-08-22T20:36:43.866Z,34.13
2022-08-22T20:39:27.867Z,34.12
2022-08-22T20:42:12.240Z,34.13
2022-08-22T20:44:53.227Z,34.11
2022-08-22T20:47:32.313Z,34.10
2022-08-22T20:50:14.753Z,34.10
2022-08-22T20:52:51.920Z,34.11
2022-08-22T20:55:31.647Z,34.10
2022-08-22T20:58:09.483Z,34.10
2022-08-22T21:00:51.456Z,34.09
2022-08-22T21:03:42.789Z,34.07
2022-08-22T21:06:18.956Z,34.06
2022-08-22T21:09:11.666Z,34.06
2022-08-22T21:11:51.463Z,34.04
2022-08-22T21:14:28.114Z,34.04
2022-08-22T21:16:59.113Z,34.04
2022-08-22T21:19:31.795Z,34.04
2022-08-22T21:22:15.694Z,34.04
2022-08-22T21:24:47.303Z,34.04
2022-08-22T21:27:29.289Z,34.05
2022-08-22T21:30:05.232Z,34.05
2022-08-22T21:32:41.064Z,34.03
2022-08-22T21:35:28.165Z,34.02
2022-08-22T21:38:01.051Z,33.99
2022-08-22T21:40:38.948Z,34.00
2022-08-22T21:43:13.557Z,34.00
2022-08-22T21:45:47.726Z,34.00
2022-08-22T21:48:37.151Z,34.01
2022-08-22T21:51:42.720Z,34.00
2022-08-22T21:54:43.148Z,33.98
2022-08-22T21:57:38.346Z,33.96
2022-08-22T22:00:32.139Z,33.95
2022-08-22T22:03:09.924Z,33.94
2022-08-22T22:05:41.543Z,33.92
2022-08-22T22:08:13.301Z,33.92
2022-08-22T22:10:47.551Z,33.92
2022-08-22T22:13:21.792Z,33.90
2022-08-22T22:15:55.633Z,33.89
2022-08-22T22:18:32.030Z,33.87
2022-08-22T22:21:04.512Z,33.86
2022-08-22T22:23:35.763Z,33.85
2022-08-22T22:26:08.538Z,33.85
2022-08-22T22:28:43.522Z,33.84
2022-08-22T22:31:13.691Z,33.84
2022-08-22T22:33:52.113Z,33.84
2022-08-22T22:36:27.478Z,33.83
2022-08-22T22:38:58.929Z,33.83
2022-08-22T22:41:29.777Z,33.81
2022-08-22T22:44:00.914Z,33.81
2022-08-22T22:46:32.147Z,33.82
2022-08-22T22:49:04.813Z,33.83
2022-08-22T22:51:35.295Z,33.81
2022-08-22T22:54:06.051Z,33.82
2022-08-22T22:56:41.710Z,33.82
2022-08-22T22:59:12.991Z,33.81
2022-08-22T23:02:08.417Z,33.78
2022-08-22T23:04:45.208Z,33.78
2022-08-22T23:07:19.027Z,33.76
2022-08-22T23:09:49.828Z,33.75
2022-08-22T23:12:20.546Z,33.73
2022-08-22T23:14:52.764Z,33.73
2022-08-22T23:17:23.647Z,33.72
2022-08-22T23:19:55.987Z,33.72
2022-08-22T23:22:26.824Z,33.71
2022-08-22T23:24:57.611Z,33.69
2022-08-22T23:27:28.556Z,33.68
2022-08-22T23:29:59.657Z,33.67
2022-08-22T23:32:30.733Z,33.65
2022-08-22T23:35:03.482Z,33.64
2022-08-22T23:37:34.125Z,33.62
2022-08-22T23:40:07.126Z,33.62
2022-08-22T23:42:37.947Z,33.60
2022-08-22T23:45:09.305Z,33.58
2022-08-22T23:47:42.635Z,33.55
2022-08-22T23:50:15.557Z,33.53
2022-08-22T23:52:46.734Z,33.51
2022-08-22T23:55:16.664Z,33.49
2022-08-22T23:57:47.298Z,33.48
